x

9442396 - La Push, Wa (lapw1) Weather Station

2:30pm - Tue 1st Sep 2015 All times are PDT. -7 hours from GMT.

  • Wind
    11mph, 15mph gusts
  • Sea Temp 55°f
  • Air Temp 60°f
  • Sea Pressure 1009.6mb
  • 9442396 - La Push, Wa
  • 9442396 - La Push, Wa

More Historic Weather Station data

Upgrade to MSW Pro to gain access to the past 30 days of data for over 8000 Wavebouys and Weather Stations around the globe.

Join Pro

Comparision Forecast

View Surf forecast
   
Tue 09/01 2:30pm 11 15 mph 1009.6mb 55f 60f
2:24pm 10 16 mph 1009.7mb 55f 60f
2:18pm 9 15 mph 1009.7mb 54f 60f
2:12pm 10 14 mph 1009.7mb 54f 60f
2:06pm 11 15 mph 1009.7mb 54f 60f
2:00pm 10 14 mph 1009.7mb 55f 60f
1:36pm 11 15 mph 1009.8mb 54f 60f
1:30pm 11 14 mph 1009.9mb 55f 60f
1:24pm 13 15 mph 1010mb 55f 60f
1:18pm 13 16 mph 1010mb 55f 60f
1:12pm 11 15 mph 1009.9mb 55f 60f
1:06pm 11 15 mph 1010mb 55f 60f
1:00pm 13 16 mph 1010.1mb 55f 60f
12:36pm 11 14 mph 1010.1mb 55f 61f
12:30pm 10 15 mph 1010.2mb 55f 60f
12:24pm 11 14 mph 1010.2mb 55f 60f
12:18pm 10 14 mph 1010.2mb 55f 61f
12:12pm 10 13 mph 1010.2mb 55f 60f
12:06pm 9 13 mph 1010.2mb 55f 61f
12:00pm 9 13 mph 1010.2mb 55f 60f
11:36am 11 15 mph 1010.4mb 56f 60f
11:30am 10 14 mph 1010.4mb 57f 60f
11:24am 10 14 mph 1010.4mb 57f 60f
11:18am 10 14 mph 1010.4mb 57f 60f
11:12am 13 15 mph 1010.4mb 57f 60f
11:06am 9 14 mph 1010.3mb 57f 60f
11:00am 11 15 mph 1010.3mb 57f 60f
10:36am 8 14 mph 1010.3mb 57f 60f
10:30am 9 11 mph 1010.3mb 57f 60f
10:24am 8 14 mph 1010.2mb 57f 59f
10:18am 8 13 mph 1010mb 57f 59f
10:12am 8 13 mph 1009.9mb 57f 59f
10:06am 7 13 mph 1010mb 57f 59f
10:00am 8 10 mph 1009.9mb 57f 59f
9:36am 5 6 mph 1009.9mb 57f 58f
9:30am 1 3 mph 1010mb 57f 58f
9:24am 1 3 mph 1009.9mb 57f 58f
9:18am 1 2 mph 1009.9mb 57f 57f
9:12am 1 2 mph 1010mb 57f 57f
9:06am 1 3 mph 1010mb 57f 57f
9:00am  -  1 mph 1010.1mb 57f 56f
8:36am 8 13 mph 1010.3mb 58f 57f
8:30am 8 15 mph 1010.3mb 58f 58f
8:24am 8 9 mph 1010.3mb 58f 58f
8:18am 6 8 mph 1010.3mb 58f 58f
8:12am 6 8 mph 1010.2mb 58f 58f
8:06am 6 8 mph 1010.2mb 58f 58f
8:00am 6 7 mph 1010.2mb 58f 58f
7:36am 3 5 mph 1010.3mb 58f 57f
7:30am 1 2 mph 1010.3mb 58f 57f
7:24am  -  1 mph 1010.2mb 58f 57f
7:18am  -  1 mph 1010.3mb 58f 57f
7:12am  -  1 mph 1010.2mb 58f 57f
7:06am  -  1 mph 1010.2mb 58f 57f
7:00am  -  2 mph 1010.3mb 58f 57f
6:36am 3 5 mph 1010.2mb 57f -
6:30am 2 5 mph 1010.2mb 57f -
6:24am 3 5 mph 1010.2mb 57f -
6:18am 2
mph
1010.3mb 57f -
6:12am 3 5 mph 1010.4mb 56f -
6:06am 3 5 mph 1010.4mb 56f -
6:00am 2 3 mph 1010.5mb 56f -
5:36am  -  2 mph 1010.6mb 55f 57f
5:30am 2 3 mph 1010.7mb 55f 58f
5:24am 2
mph
1010.8mb 55f 57f
5:18am  -  1 mph 1011mb 55f 58f
5:12am  -  mph 1011mb 55f 58f
5:06am  -  2 mph 1011mb 55f 58f
5:00am 2
mph
1011mb 55f 58f
4:36am 1 2 mph 1011mb 55f 58f
4:30am 1 2 mph 1011mb 55f 58f
4:24am  -  2 mph 1011.2mb 55f 58f
4:18am  -  3 mph 1011.2mb 55f 58f
4:12am 2 3 mph 1011.3mb 55f 58f
4:06am 2 3 mph 1011.3mb 55f 58f
4:00am 1 2 mph 1011.3mb 55f 58f
3:36am 1 2 mph 1011.3mb 55f 58f
3:30am  -  1 mph 1011.3mb 55f 58f
3:24am  -  2 mph 1011.3mb 55f 58f
3:18am 1 2 mph 1011.3mb 55f 58f
3:12am 1
mph
1011.3mb 55f 58f
3:06am  -  1 mph 1011.3mb 55f 58f
3:00am  -  2 mph 1011.2mb 55f 58f
2:36am  -  3 mph - 55f 59f
2:30am 2 5 mph - 55f 59f
2:24am 5 6 mph - 55f 59f
2:18am 5 8 mph - 55f 59f
2:12am 6 7 mph - 55f 59f
2:06am 5 7 mph - 55f 59f
2:00am 5 8 mph - 55f 59f
1:36am 6 10 mph 1010.9mb 55f 58f
1:30am 8 11 mph 1010.9mb 55f 58f
1:24am 8 10 mph 1010.8mb 55f 59f
1:18am 8 10 mph 1010.9mb 55f 59f
1:12am 6 8 mph 1010.8mb 55f 60f
1:06am 6 10 mph 1010.7mb 55f 59f
1:00am 8 13 mph 1010.8mb 55f 59f
12:36am 10 16 mph 1010.7mb 55f 60f
12:30am 13 20 mph 1010.7mb 55f 59f
12:24am 10 18 mph 1010.7mb 55f 59f
12:18am 13 18 mph 1010.7mb 55f 59f
12:12am 9 15 mph 1010.7mb 55f 59f
12:06am 10 16 mph 1010.8mb 55f 59f
12:00am 13 17 mph 1010.8mb 55f 58f
Mon 08/31 11:36pm 15 20 mph 1010.6mb 55f 58f
11:30pm 15 18 mph 1010.6mb 56f 58f
11:24pm 14 21 mph 1010.6mb 56f 59f
11:18pm 18 23 mph 1010.6mb 56f 59f
11:12pm 14 23 mph 1010.5mb 56f 59f
11:06pm 11 21 mph 1010.6mb 56f 59f
11:00pm 11 22 mph 1010.6mb 57f 59f
10:36pm 11 20 mph 1010.8mb 58f 59f
10:30pm 13 22 mph 1010.8mb 58f 60f
10:24pm 13 22 mph 1010.8mb 58f 60f
10:18pm 11 18 mph 1010.9mb 58f 60f
10:12pm 10 18 mph 1010.8mb 58f 60f
10:06pm 14 21 mph 1010.9mb 58f 60f
10:00pm 11 18 mph 1010.9mb 58f 60f
9:36pm 14 20 mph 1010.9mb 58f 61f
9:30pm 16 24 mph 1010.9mb 58f 61f
9:24pm 17 23 mph 1010.9mb 58f 60f
9:18pm 13 21 mph 1011mb 58f 60f
9:12pm 10 20 mph 1011.1mb 58f 60f
9:06pm 13 20 mph 1011mb 58f 60f
9:00pm 9 21 mph 1011.1mb 58f 60f
8:36pm 10 14 mph 1011.2mb 58f 60f
8:30pm 9 17 mph 1011.1mb 58f 59f
8:24pm 13 16 mph 1011.1mb 58f 59f
8:18pm 13 15 mph 1011.1mb 58f 59f
8:12pm 8 13 mph 1011.2mb 58f 58f
8:06pm 13 15 mph 1011.2mb 58f 58f
8:00pm 11 16 mph 1011.2mb 58f 58f
7:36pm 13 20 mph 1011.4mb 58f 58f
7:30pm 15 23 mph 1011.4mb 58f 59f
7:24pm 16 23 mph 1011.5mb 58f 59f
7:18pm 10 16 mph 1011.6mb 58f 60f
7:12pm 14 17 mph 1011.6mb 57f 59f
7:06pm 14 18 mph 1011.6mb 57f 60f
7:00pm 13 21 mph 1011.6mb 57f 60f
6:36pm 14 21 mph 1011.7mb 56f 60f
6:30pm 13 18 mph 1011.6mb 55f 60f
6:24pm 9 22 mph 1011.7mb 55f 60f
6:18pm 13 20 mph 1011.7mb 55f 60f
6:12pm 14 22 mph 1011.8mb 55f 60f
6:06pm 10 16 mph 1011.9mb 55f 60f
6:00pm 9 16 mph 1011.9mb 55f 60f
5:36pm 14 20 mph 1012.1mb 55f 59f
5:30pm 15 20 mph 1012.1mb 54f 59f
5:24pm 14 18 mph 1012.2mb 54f 59f
5:18pm 14 20 mph 1012.2mb 54f 60f
5:12pm 13 20 mph 1012.2mb 54f 60f
5:06pm 13 21 mph 1012.2mb 55f 60f
5:00pm 14 18 mph 1012.2mb 55f 60f
4:36pm  -  mph 1012.3mb 54f 60f
3:36pm 11 15 mph 1012.6mb 54f 59f
3:30pm 11 18 mph 1012.6mb 54f 60f
3:24pm 10 17 mph 1012.6mb 54f 60f
3:18pm 13 17 mph 1012.7mb 54f 60f
3:12pm 10 17 mph 1012.6mb 54f 60f
3:06pm 10 16 mph 1012.7mb 54f 60f
3:00pm 9 17 mph 1012.7mb 54f 60f
2:54pm 10 20 mph 1012.9mb 54f 60f
2:48pm 14 23 mph 1013mb 54f 60f
2:36pm 15 20 mph 1012.8mb 54f 59f
2:30pm 13 18 mph 1012.9mb 54f 59f
2:24pm 13 17 mph 1013.1mb 54f 59f
2:18pm 11 18 mph 1013.1mb 54f 59f
2:12pm 14 20 mph 1013.2mb 54f 59f
2:06pm 13 22 mph 1013mb 54f 59f
2:00pm 14 18 mph 1013.1mb 54f 59f
1:54pm 13 22 mph 1013mb 54f 59f
1:48pm 10 18 mph 1013mb 54f 59f
1:36pm 13 18 mph 1013.1mb 55f 60f
1:30pm 11 22 mph 1013mb 54f 59f
1:24pm 11 20 mph 1013mb 54f 59f
1:18pm 11 18 mph 1013mb 54f 59f
1:12pm 13 21 mph 1013mb 54f 60f
1:06pm 16 20 mph 1013mb 55f 59f
1:00pm 13 18 mph 1013.1mb 55f 59f
12:54pm 13 18 mph 1013.1mb 55f 59f
12:48pm 14 18 mph 1013.1mb 55f 58f
12:36pm 13 17 mph 1013.1mb 55f 58f
12:30pm 13 18 mph 1013.1mb 55f 59f
12:24pm 15 20 mph 1013mb 55f 59f
12:18pm 14 20 mph 1013mb 55f 59f
12:12pm 14 17 mph 1013mb 55f 59f
12:06pm 16 20 mph 1012.9mb 55f 59f
12:00pm 17 22 mph 1012.9mb 55f 59f
11:54am 15 22 mph 1012.9mb 55f 59f
11:48am 15 20 mph 1012.9mb 55f 59f
11:36am 15 21 mph 1012.9mb 55f 59f
11:30am 16 20 mph 1012.8mb 55f 59f
11:24am 14 22 mph 1012.9mb 55f 59f
11:18am 14 20 mph 1012.9mb 55f 59f
11:12am 14 17 mph 1012.9mb 55f 59f
11:06am 13 18 mph 1012.9mb 55f 59f
11:00am 17 22 mph 1012.9mb 56f 59f
10:54am 16 23 mph 1012.9mb 56f 58f
10:48am 16 21 mph 1013mb 56f 58f
10:36am 15 21 mph - 56f 59f
10:30am 14 22 mph - 56f 59f
10:24am 14 21 mph - 56f 58f
10:18am 13 18 mph - 56f 59f
10:12am 14 21 mph - 56f 58f
10:06am 13 18 mph - 56f 59f
10:00am 14 18 mph - 56f 59f
9:54am 13 20 mph - 57f 58f
9:48am 14 17 mph - 57f 59f
9:36am 16 18 mph 1012.6mb 58f 58f
9:30am 14 20 mph 1012.5mb 58f 58f
9:24am 11 18 mph 1012.5mb 58f 59f
9:18am 14 17 mph 1012.5mb 59f 59f
9:12am 14 20 mph 1012.4mb 59f 59f
9:06am 14 20 mph 1012.4mb 59f 59f
9:00am 14 20 mph 1012.4mb 59f 58f
8:54am 15 21 mph 1012.4mb 59f 59f
8:48am 16 22 mph 1012.4mb 59f 58f
7:54am 15 22 mph 1012.4mb 59f 58f
7:48am 11 22 mph 1012.3mb 59f 58f
6:54am 14 20 mph 1012.1mb 58f 59f
6:48am 10 17 mph 1012.1mb 57f 59f
5:54am 11 15 mph 1012mb 55f 59f
5:48am 11 15 mph 1012mb 55f 59f
4:54am 15 20 mph 1012.1mb 55f 58f
4:48am 11 16 mph 1012.1mb 54f 58f
3:54am  -  mph 1011.9mb 55f 59f
3:48am  -  mph 1011.9mb 55f 58f
2:54am 15 20 mph 1011.9mb 54f 58f
2:48am 14 20 mph 1012mb 54f 58f